sensor_id;sensor_type;location;lat;lon;timestamp;temperature;humidity
39079;DHT22;24829;49.208;12.080;2023-11-21T00:02:13;6.80;99.90
39079;DHT22;24829;49.208;12.080;2023-11-21T00:04:39;6.90;99.90
39079;DHT22;24829;49.208;12.080;2023-11-21T00:07:04;6.90;99.90
39079;DHT22;24829;49.208;12.080;2023-11-21T00:09:31;6.90;99.90
39079;DHT22;24829;49.208;12.080;2023-11-21T00:11:57;7.00;99.90
39079;DHT22;24829;49.208;12.080;2023-11-21T00:14:24;7.00;99.90
39079;DHT22;24829;49.208;12.080;2023-11-21T00:16:50;7.00;99.90
39079;DHT22;24829;49.208;12.080;2023-11-21T00:19:16;7.00;99.90
39079;DHT22;24829;49.208;12.080;2023-11-21T00:21:42;7.00;99.90
39079;DHT22;24829;49.208;12.080;2023-11-21T00:24:10;7.00;99.90
39079;DHT22;24829;49.208;12.080;2023-11-21T00:26:35;7.10;99.90
39079;DHT22;24829;49.208;12.080;2023-11-21T00:29:03;7.00;99.90
39079;DHT22;24829;49.208;12.080;2023-11-21T00:31:29;7.10;99.90
39079;DHT22;24829;49.208;12.080;2023-11-21T00:33:56;7.10;99.90
39079;DHT22;24829;49.208;12.080;2023-11-21T00:36:21;7.10;99.90
39079;DHT22;24829;49.208;12.080;2023-11-21T00:38:47;7.10;99.90
39079;DHT22;24829;49.208;12.080;2023-11-21T00:41:14;7.10;99.90
39079;DHT22;24829;49.208;12.080;2023-11-21T00:43:39;7.20;99.90
39079;DHT22;24829;49.208;12.080;2023-11-21T00:46:05;7.20;99.90
39079;DHT22;24829;49.208;12.080;2023-11-21T00:48:33;7.20;99.90
39079;DHT22;24829;49.208;12.080;2023-11-21T00:50:58;7.10;99.90
39079;DHT22;24829;49.208;12.080;2023-11-21T00:53:24;7.10;99.90
39079;DHT22;24829;49.208;12.080;2023-11-21T00:55:50;7.10;99.90
39079;DHT22;24829;49.208;12.080;2023-11-21T00:58:17;7.10;99.90
39079;DHT22;24829;49.208;12.080;2023-11-21T01:00:43;7.10;99.90
39079;DHT22;24829;49.208;12.080;2023-11-21T01:03:09;7.10;99.90
39079;DHT22;24829;49.208;12.080;2023-11-21T01:05:35;7.10;99.90
39079;DHT22;24829;49.208;12.080;2023-11-21T01:08:00;7.10;99.90
39079;DHT22;24829;49.208;12.080;2023-11-21T01:10:26;7.10;99.90
39079;DHT22;24829;49.208;12.080;2023-11-21T01:12:51;7.10;99.90
39079;DHT22;24829;49.208;12.080;2023-11-21T01:15:17;7.10;99.90
39079;DHT22;24829;49.208;12.080;2023-11-21T01:17:42;7.10;99.90
39079;DHT22;24829;49.208;12.080;2023-11-21T01:20:08;7.10;99.90
39079;DHT22;24829;49.208;12.080;2023-11-21T01:22:38;7.00;99.90
39079;DHT22;24829;49.208;12.080;2023-11-21T01:25:04;7.00;99.90
39079;DHT22;24829;49.208;12.080;2023-11-21T01:27:32;7.00;99.90
39079;DHT22;24829;49.208;12.080;2023-11-21T01:29:57;7.00;99.90
39079;DHT22;24829;49.208;12.080;2023-11-21T01:32:23;6.90;99.90
39079;DHT22;24829;49.208;12.080;2023-11-21T01:34:50;6.90;99.90
39079;DHT22;24829;49.208;12.080;2023-11-21T01:37:16;6.80;99.90
39079;DHT22;24829;49.208;12.080;2023-11-21T01:39:43;6.70;99.90
39079;DHT22;24829;49.208;12.080;2023-11-21T01:42:10;6.60;99.90
39079;DHT22;24829;49.208;12.080;2023-11-21T01:44:38;6.60;99.90
39079;DHT22;24829;49.208;12.080;2023-11-21T01:47:07;6.50;99.90
39079;DHT22;24829;49.208;12.080;2023-11-21T01:49:35;6.60;99.90
39079;DHT22;24829;49.208;12.080;2023-11-21T01:52:01;6.60;99.90
39079;DHT22;24829;49.208;12.080;2023-11-21T01:54:27;6.60;99.90
39079;DHT22;24829;49.208;12.080;2023-11-21T01:56:57;6.60;99.90
39079;DHT22;24829;49.208;12.080;2023-11-21T01:59:36;6.60;99.90
39079;DHT22;24829;49.208;12.080;2023-11-21T02:02:03;6.70;99.90
39079;DHT22;24829;49.208;12.080;2023-11-21T02:04:33;6.70;99.90
39079;DHT22;24829;49.208;12.080;2023-11-21T02:07:00;6.70;99.90
39079;DHT22;24829;49.208;12.080;2023-11-21T02:09:28;6.70;99.90
39079;DHT22;24829;49.208;12.080;2023-11-21T02:11:58;6.80;99.90
39079;DHT22;24829;49.208;12.080;2023-11-21T02:14:28;6.80;99.90
39079;DHT22;24829;49.208;12.080;2023-11-21T02:16:55;6.80;99.90
39079;DHT22;24829;49.208;12.080;2023-11-21T02:19:22;6.80;99.90
39079;DHT22;24829;49.208;12.080;2023-11-21T02:21:53;6.80;99.90
39079;DHT22;24829;49.208;12.080;2023-11-21T02:24:23;6.80;99.90
39079;DHT22;24829;49.208;12.080;2023-11-21T02:26:49;6.70;99.90
39079;DHT22;24829;49.208;12.080;2023-11-21T02:29:17;6.70;99.90
39079;DHT22;24829;49.208;12.080;2023-11-21T02:31:45;6.70;99.90
39079;DHT22;24829;49.208;12.080;2023-11-21T02:34:17;6.70;99.90
39079;DHT22;24829;49.208;12.080;2023-11-21T02:36:43;6.80;99.90
39079;DHT22;24829;49.208;12.080;2023-11-21T02:39:10;6.70;99.90
39079;DHT22;24829;49.208;12.080;2023-11-21T02:41:37;6.70;99.90
39079;DHT22;24829;49.208;12.080;2023-11-21T02:44:03;6.70;99.90
39079;DHT22;24829;49.208;12.080;2023-11-21T02:46:28;6.70;99.90
39079;DHT22;24829;49.208;12.080;2023-11-21T02:48:54;6.70;99.90
39079;DHT22;24829;49.208;12.080;2023-11-21T02:51:20;6.70;99.90
39079;DHT22;24829;49.208;12.080;2023-11-21T02:53:45;6.60;99.90
39079;DHT22;24829;49.208;12.080;2023-11-21T02:56:12;6.70;99.90
39079;DHT22;24829;49.208;12.080;2023-11-21T02:58:41;6.70;99.90
39079;DHT22;24829;49.208;12.080;2023-11-21T03:01:07;6.60;99.90
39079;DHT22;24829;49.208;12.080;2023-11-21T03:03:33;6.60;99.90
39079;DHT22;24829;49.208;12.080;2023-11-21T03:05:59;6.50;99.90
39079;DHT22;24829;49.208;12.080;2023-11-21T03:08:24;6.40;99.90
39079;DHT22;24829;49.208;12.080;2023-11-21T03:10:50;6.40;99.90
39079;DHT22;24829;49.208;12.080;2023-11-21T03:13:15;6.30;99.90
39079;DHT22;24829;49.208;12.080;2023-11-21T03:15:41;6.30;99.90
39079;DHT22;24829;49.208;12.080;2023-11-21T03:18:08;6.30;99.90
39079;DHT22;24829;49.208;12.080;2023-11-21T03:20:33;6.30;99.90
39079;DHT22;24829;49.208;12.080;2023-11-21T03:23:00;6.30;99.90
39079;DHT22;24829;49.208;12.080;2023-11-21T03:25:26;6.30;99.90
39079;DHT22;24829;49.208;12.080;2023-11-21T03:27:51;6.30;99.90
39079;DHT22;24829;49.208;12.080;2023-11-21T03:30:17;6.30;99.90
39079;DHT22;24829;49.208;12.080;2023-11-21T03:32:43;6.30;99.90
39079;DHT22;24829;49.208;12.080;2023-11-21T03:35:08;6.30;99.90
39079;DHT22;24829;49.208;12.080;2023-11-21T03:37:34;6.30;99.90
39079;DHT22;24829;49.208;12.080;2023-11-21T03:39:59;6.30;99.90
39079;DHT22;24829;49.208;12.080;2023-11-21T03:42:25;6.30;99.90
39079;DHT22;24829;49.208;12.080;2023-11-21T03:44:52;6.30;99.90
39079;DHT22;24829;49.208;12.080;2023-11-21T03:47:18;6.30;99.90
39079;DHT22;24829;49.208;12.080;2023-11-21T03:49:44;6.30;99.90
39079;DHT22;24829;49.208;12.080;2023-11-21T03:52:11;6.40;99.90
39079;DHT22;24829;49.208;12.080;2023-11-21T03:54:37;6.40;99.90
39079;DHT22;24829;49.208;12.080;2023-11-21T03:57:03;6.40;99.90
39079;DHT22;24829;49.208;12.080;2023-11-21T03:59:28;6.40;99.90
39079;DHT22;24829;49.208;12.080;2023-11-21T04:01:57;6.40;99.90
39079;DHT22;24829;49.208;12.080;2023-11-21T04:04:23;6.40;99.90
39079;DHT22;24829;49.208;12.080;2023-11-21T04:06:48;6.40;99.90
39079;DHT22;24829;49.208;12.080;2023-11-21T04:09:14;6.40;99.90
39079;DHT22;24829;49.208;12.080;2023-11-21T04:11:39;6.40;99.90
39079;DHT22;24829;49.208;12.080;2023-11-21T04:14:05;6.40;99.90
39079;DHT22;24829;49.208;12.080;2023-11-21T04:16:30;6.40;99.90
39079;DHT22;24829;49.208;12.080;2023-11-21T04:18:56;6.40;99.90
39079;DHT22;24829;49.208;12.080;2023-11-21T04:21:22;6.40;99.90
39079;DHT22;24829;49.208;12.080;2023-11-21T04:23:49;6.30;99.90
39079;DHT22;24829;49.208;12.080;2023-11-21T04:26:15;6.30;99.90
39079;DHT22;24829;49.208;12.080;2023-11-21T04:28:40;6.30;99.90
39079;DHT22;24829;49.208;12.080;2023-11-21T04:31:06;6.30;99.90
39079;DHT22;24829;49.208;12.080;2023-11-21T04:33:32;6.30;99.90
39079;DHT22;24829;49.208;12.080;2023-11-21T04:35:58;6.30;99.90
39079;DHT22;24829;49.208;12.080;2023-11-21T04:38:23;6.30;99.90
39079;DHT22;24829;49.208;12.080;2023-11-21T04:40:49;6.30;99.90
39079;DHT22;24829;49.208;12.080;2023-11-21T04:43:14;6.30;99.90
39079;DHT22;24829;49.208;12.080;2023-11-21T04:45:40;6.30;99.90
39079;DHT22;24829;49.208;12.080;2023-11-21T04:48:07;6.30;99.90
39079;DHT22;24829;49.208;12.080;2023-11-21T04:50:33;6.30;99.90
39079;DHT22;24829;49.208;12.080;2023-11-21T04:52:59;6.30;99.90
39079;DHT22;24829;49.208;12.080;2023-11-21T04:55:25;6.30;99.90
39079;DHT22;24829;49.208;12.080;2023-11-21T04:57:53;6.40;99.90
39079;DHT22;24829;49.208;12.080;2023-11-21T05:00:19;6.40;99.90
39079;DHT22;24829;49.208;12.080;2023-11-21T05:02:45;6.30;99.90
39079;DHT22;24829;49.208;12.080;2023-11-21T05:05:10;6.30;99.90
39079;DHT22;24829;49.208;12.080;2023-11-21T05:07:36;6.20;99.90
39079;DHT22;24829;49.208;12.080;2023-11-21T05:10:04;6.10;99.90
39079;DHT22;24829;49.208;12.080;2023-11-21T05:12:33;6.10;99.90
39079;DHT22;24829;49.208;12.080;2023-11-21T05:15:04;6.00;99.90
39079;DHT22;24829;49.208;12.080;2023-11-21T05:17:35;6.00;99.90
39079;DHT22;24829;49.208;12.080;2023-11-21T05:20:01;6.00;99.90
39079;DHT22;24829;49.208;12.080;2023-11-21T05:22:34;6.00;99.90
39079;DHT22;24829;49.208;12.080;2023-11-21T05:25:00;6.10;99.90
39079;DHT22;24829;49.208;12.080;2023-11-21T05:27:25;6.10;99.90
39079;DHT22;24829;49.208;12.080;2023-11-21T05:29:51;6.10;99.90
39079;DHT22;24829;49.208;12.080;2023-11-21T05:32:16;6.10;99.90
39079;DHT22;24829;49.208;12.080;2023-11-21T05:34:43;6.10;99.90
39079;DHT22;24829;49.208;12.080;2023-11-21T05:37:08;6.20;99.90
39079;DHT22;24829;49.208;12.080;2023-11-21T05:39:34;6.20;99.90
39079;DHT22;24829;49.208;12.080;2023-11-21T05:42:01;6.20;99.90
39079;DHT22;24829;49.208;12.080;2023-11-21T05:44:27;6.20;99.90
39079;DHT22;24829;49.208;12.080;2023-11-21T05:46:52;6.20;99.90
39079;DHT22;24829;49.208;12.080;2023-11-21T05:49:18;6.20;99.90
39079;DHT22;24829;49.208;12.080;2023-11-21T05:51:47;6.20;99.90
39079;DHT22;24829;49.208;12.080;2023-11-21T05:54:12;6.20;99.90
39079;DHT22;24829;49.208;12.080;2023-11-21T05:56:38;6.20;99.90
39079;DHT22;24829;49.208;12.080;2023-11-21T05:59:03;6.20;99.90
39079;DHT22;24829;49.208;12.080;2023-11-21T06:01:29;6.20;99.90
39079;DHT22;24829;49.208;12.080;2023-11-21T06:03:55;6.10;99.90
39079;DHT22;24829;49.208;12.080;2023-11-21T06:06:21;6.10;99.90
39079;DHT22;24829;49.208;12.080;2023-11-21T06:08:48;6.10;99.90
39079;DHT22;24829;49.208;12.080;2023-11-21T06:11:14;6.10;99.90
39079;DHT22;24829;49.208;12.080;2023-11-21T06:13:41;6.10;99.90
39079;DHT22;24829;49.208;12.080;2023-11-21T06:16:08;6.10;99.90
39079;DHT22;24829;49.208;12.080;2023-11-21T06:18:34;6.10;99.90
39079;DHT22;24829;49.208;12.080;2023-11-21T06:21:00;6.10;99.90
39079;DHT22;24829;49.208;12.080;2023-11-21T06:23:26;6.10;99.90
39079;DHT22;24829;49.208;12.080;2023-11-21T06:25:51;6.10;99.90
39079;DHT22;24829;49.208;12.080;2023-11-21T06:28:18;6.10;99.90
39079;DHT22;24829;49.208;12.080;2023-11-21T06:30:43;6.10;99.90
39079;DHT22;24829;49.208;12.080;2023-11-21T06:33:10;6.10;99.90
39079;DHT22;24829;49.208;12.080;2023-11-21T06:35:36;6.10;99.90
39079;DHT22;24829;49.208;12.080;2023-11-21T06:38:02;6.20;99.90
39079;DHT22;24829;49.208;12.080;2023-11-21T06:40:28;6.20;99.90
39079;DHT22;24829;49.208;12.080;2023-11-21T06:42:54;6.20;99.90
39079;DHT22;24829;49.208;12.080;2023-11-21T06:45:19;6.20;99.90
39079;DHT22;24829;49.208;12.080;2023-11-21T06:47:45;6.20;99.90
39079;DHT22;24829;49.208;12.080;2023-11-21T06:50:11;6.20;99.90
39079;DHT22;24829;49.208;12.080;2023-11-21T06:52:37;6.20;99.90
39079;DHT22;24829;49.208;12.080;2023-11-21T06:55:02;6.10;99.90
39079;DHT22;24829;49.208;12.080;2023-11-21T06:57:28;6.00;99.90
39079;DHT22;24829;49.208;12.080;2023-11-21T06:59:54;6.00;99.90
39079;DHT22;24829;49.208;12.080;2023-11-21T07:02:20;6.00;99.90
39079;DHT22;24829;49.208;12.080;2023-11-21T07:04:46;5.90;99.90
39079;DHT22;24829;49.208;12.080;2023-11-21T07:07:12;5.90;99.90
39079;DHT22;24829;49.208;12.080;2023-11-21T07:09:38;5.90;99.90
39079;DHT22;24829;49.208;12.080;2023-11-21T07:12:04;5.90;99.90
39079;DHT22;24829;49.208;12.080;2023-11-21T07:14:35;5.90;99.90
39079;DHT22;24829;49.208;12.080;2023-11-21T07:17:02;6.00;99.90
39079;DHT22;24829;49.208;12.080;2023-11-21T07:19:28;6.00;99.90
39079;DHT22;24829;49.208;12.080;2023-11-21T07:21:54;6.10;99.90
39079;DHT22;24829;49.208;12.080;2023-11-21T07:24:21;6.10;99.90
39079;DHT22;24829;49.208;12.080;2023-11-21T07:26:46;6.20;99.90
39079;DHT22;24829;49.208;12.080;2023-11-21T07:29:13;6.20;99.90
39079;DHT22;24829;49.208;12.080;2023-11-21T07:31:39;6.30;99.90
39079;DHT22;24829;49.208;12.080;2023-11-21T07:34:05;6.40;99.90
39079;DHT22;24829;49.208;12.080;2023-11-21T07:36:31;6.40;99.90
39079;DHT22;24829;49.208;12.080;2023-11-21T07:38:57;6.60;99.90
39079;DHT22;24829;49.208;12.080;2023-11-21T07:41:22;6.60;99.90
39079;DHT22;24829;49.208;12.080;2023-11-21T07:43:48;6.70;99.90
39079;DHT22;24829;49.208;12.080;2023-11-21T07:46:13;6.80;99.90
39079;DHT22;24829;49.208;12.080;2023-11-21T07:48:40;6.80;99.90
39079;DHT22;24829;49.208;12.080;2023-11-21T07:51:06;6.80;99.90
39079;DHT22;24829;49.208;12.080;2023-11-21T07:53:35;6.80;99.90
39079;DHT22;24829;49.208;12.080;2023-11-21T07:56:04;6.80;99.90
39079;DHT22;24829;49.208;12.080;2023-11-21T07:58:30;6.80;99.90
39079;DHT22;24829;49.208;12.080;2023-11-21T08:00:59;6.90;99.90
39079;DHT22;24829;49.208;12.080;2023-11-21T08:03:24;6.80;99.90
39079;DHT22;24829;49.208;12.080;2023-11-21T08:05:52;6.90;99.90
39079;DHT22;24829;49.208;12.080;2023-11-21T08:08:17;6.90;99.90
39079;DHT22;24829;49.208;12.080;2023-11-21T08:10:44;6.90;99.90
39079;DHT22;24829;49.208;12.080;2023-11-21T08:13:19;6.90;99.90
39079;DHT22;24829;49.208;12.080;2023-11-21T08:15:45;6.90;99.90
39079;DHT22;24829;49.208;12.080;2023-11-21T08:18:11;6.90;99.90
39079;DHT22;24829;49.208;12.080;2023-11-21T08:20:38;6.90;99.90
39079;DHT22;24829;49.208;12.080;2023-11-21T08:23:05;6.90;99.90
39079;DHT22;24829;49.208;12.080;2023-11-21T08:25:31;7.00;99.90
39079;DHT22;24829;49.208;12.080;2023-11-21T08:27:58;7.00;99.90
39079;DHT22;24829;49.208;12.080;2023-11-21T08:30:23;7.10;99.90
39079;DHT22;24829;49.208;12.080;2023-11-21T08:32:49;7.00;99.90
39079;DHT22;24829;49.208;12.080;2023-11-21T08:35:17;7.00;99.90
39079;DHT22;24829;49.208;12.080;2023-11-21T08:37:43;7.10;99.90
39079;DHT22;24829;49.208;12.080;2023-11-21T08:40:09;7.10;99.90
39079;DHT22;24829;49.208;12.080;2023-11-21T08:42:37;7.10;99.90
39079;DHT22;24829;49.208;12.080;2023-11-21T08:45:04;7.10;99.90
39079;DHT22;24829;49.208;12.080;2023-11-21T08:47:29;7.10;99.90
39079;DHT22;24829;49.208;12.080;2023-11-21T08:49:55;7.00;99.90
39079;DHT22;24829;49.208;12.080;2023-11-21T08:52:21;6.90;99.90
39079;DHT22;24829;49.208;12.080;2023-11-21T08:54:49;6.90;99.90
39079;DHT22;24829;49.208;12.080;2023-11-21T08:57:22;6.90;99.90
39079;DHT22;24829;49.208;12.080;2023-11-21T08:59:47;6.80;99.90
39079;DHT22;24829;49.208;12.080;2023-11-21T09:02:13;6.80;99.90
39079;DHT22;24829;49.208;12.080;2023-11-21T09:04:38;6.70;99.90
39079;DHT22;24829;49.208;12.080;2023-11-21T09:07:04;6.80;99.90
39079;DHT22;24829;49.208;12.080;2023-11-21T09:09:30;6.90;99.90
39079;DHT22;24829;49.208;12.080;2023-11-21T09:11:56;6.80;99.90
39079;DHT22;24829;49.208;12.080;2023-11-21T09:14:22;6.90;99.90
39079;DHT22;24829;49.208;12.080;2023-11-21T09:16:48;6.90;99.90
39079;DHT22;24829;49.208;12.080;2023-11-21T09:19:15;7.00;99.90
39079;DHT22;24829;49.208;12.080;2023-11-21T09:21:40;7.00;99.90
39079;DHT22;24829;49.208;12.080;2023-11-21T09:24:06;7.00;99.90
39079;DHT22;24829;49.208;12.080;2023-11-21T09:26:34;7.10;99.90
39079;DHT22;24829;49.208;12.080;2023-11-21T09:29:00;7.10;99.90
39079;DHT22;24829;49.208;12.080;2023-11-21T09:31:25;7.20;99.90
39079;DHT22;24829;49.208;12.080;2023-11-21T09:33:53;7.20;99.90
39079;DHT22;24829;49.208;12.080;2023-11-21T09:36:19;7.30;99.90
39079;DHT22;24829;49.208;12.080;2023-11-21T09:38:44;7.40;99.90
39079;DHT22;24829;49.208;12.080;2023-11-21T09:41:23;7.40;99.90
39079;DHT22;24829;49.208;12.080;2023-11-21T09:43:55;7.50;99.90
39079;DHT22;24829;49.208;12.080;2023-11-21T09:46:23;7.60;99.90
39079;DHT22;24829;49.208;12.080;2023-11-21T09:48:51;7.60;99.90
39079;DHT22;24829;49.208;12.080;2023-11-21T09:51:20;7.70;99.90
39079;DHT22;24829;49.208;12.080;2023-11-21T09:53:50;7.70;99.90
39079;DHT22;24829;49.208;12.080;2023-11-21T09:56:18;7.80;99.90
39079;DHT22;24829;49.208;12.080;2023-11-21T09:58:51;7.90;99.90
39079;DHT22;24829;49.208;12.080;2023-11-21T10:01:18;7.90;99.90
39079;DHT22;24829;49.208;12.080;2023-11-21T10:03:43;8.00;99.90
39079;DHT22;24829;49.208;12.080;2023-11-21T10:06:10;8.00;99.90
39079;DHT22;24829;49.208;12.080;2023-11-21T10:08:40;8.00;99.90
39079;DHT22;24829;49.208;12.080;2023-11-21T10:11:07;8.10;99.90
39079;DHT22;24829;49.208;12.080;2023-11-21T10:13:37;8.20;99.90
39079;DHT22;24829;49.208;12.080;2023-11-21T10:16:05;8.20;99.90
39079;DHT22;24829;49.208;12.080;2023-11-21T10:18:33;8.20;99.90
39079;DHT22;24829;49.208;12.080;2023-11-21T10:21:00;8.30;99.90
39079;DHT22;24829;49.208;12.080;2023-11-21T10:23:26;8.30;99.90
39079;DHT22;24829;49.208;12.080;2023-11-21T10:25:52;8.20;99.90
39079;DHT22;24829;49.208;12.080;2023-11-21T10:28:18;8.30;99.90
39079;DHT22;24829;49.208;12.080;2023-11-21T10:30:46;8.30;99.90
39079;DHT22;24829;49.208;12.080;2023-11-21T10:33:11;8.30;99.90
39079;DHT22;24829;49.208;12.080;2023-11-21T10:35:45;8.30;99.90
39079;DHT22;24829;49.208;12.080;2023-11-21T10:38:20;8.30;99.90
39079;DHT22;24829;49.208;12.080;2023-11-21T10:40:50;8.30;99.90
39079;DHT22;24829;49.208;12.080;2023-11-21T10:43:16;8.30;99.90
39079;DHT22;24829;49.208;12.080;2023-11-21T10:45:42;8.40;99.90
39079;DHT22;24829;49.208;12.080;2023-11-21T10:48:15;8.40;99.90
39079;DHT22;24829;49.208;12.080;2023-11-21T10:50:41;8.40;99.90
39079;DHT22;24829;49.208;12.080;2023-11-21T10:53:06;8.40;99.90
39079;DHT22;24829;49.208;12.080;2023-11-21T10:55:35;8.50;99.90
39079;DHT22;24829;49.208;12.080;2023-11-21T10:58:02;8.50;99.90
39079;DHT22;24829;49.208;12.080;2023-11-21T11:00:30;8.50;99.90
39079;DHT22;24829;49.208;12.080;2023-11-21T11:02:56;8.50;99.90
39079;DHT22;24829;49.208;12.080;2023-11-21T11:05:26;8.40;99.90
39079;DHT22;24829;49.208;12.080;2023-11-21T11:08:04;8.40;99.90
39079;DHT22;24829;49.208;12.080;2023-11-21T11:10:30;8.50;99.90
39079;DHT22;24829;49.208;12.080;2023-11-21T11:12:56;8.50;99.90
39079;DHT22;24829;49.208;12.080;2023-11-21T11:15:27;8.30;99.90
39079;DHT22;24829;49.208;12.080;2023-11-21T11:17:54;8.30;99.90
39079;DHT22;24829;49.208;12.080;2023-11-21T11:20:28;8.30;99.90
39079;DHT22;24829;49.208;12.080;2023-11-21T11:28:19;8.20;99.90
39079;DHT22;24829;49.208;12.080;2023-11-21T11:31:05;8.20;99.90
39079;DHT22;24829;49.208;12.080;2023-11-21T11:33:48;8.30;99.90
39079;DHT22;24829;49.208;12.080;2023-11-21T11:36:34;8.40;99.90
39079;DHT22;24829;49.208;12.080;2023-11-21T11:39:01;8.40;99.90
39079;DHT22;24829;49.208;12.080;2023-11-21T11:41:30;8.40;99.90
39079;DHT22;24829;49.208;12.080;2023-11-21T11:43:58;8.50;99.90
39079;DHT22;24829;49.208;12.080;2023-11-21T11:46:51;8.50;99.90
39079;DHT22;24829;49.208;12.080;2023-11-21T11:49:27;8.50;99.90
39079;DHT22;24829;49.208;12.080;2023-11-21T11:52:34;8.50;99.90
39079;DHT22;24829;49.208;12.080;2023-11-21T11:55:01;8.50;99.90
39079;DHT22;24829;49.208;12.080;2023-11-21T11:57:30;8.60;99.90
39079;DHT22;24829;49.208;12.080;2023-11-21T12:02:37;8.60;99.90
39079;DHT22;24829;49.208;12.080;2023-11-21T12:05:13;8.60;99.90
39079;DHT22;24829;49.208;12.080;2023-11-21T12:10:14;8.60;99.90
39079;DHT22;24829;49.208;12.080;2023-11-21T12:12:44;8.60;99.90
39079;DHT22;24829;49.208;12.080;2023-11-21T12:15:11;8.70;99.90
39079;DHT22;24829;49.208;12.080;2023-11-21T12:17:37;8.70;99.90
39079;DHT22;24829;49.208;12.080;2023-11-21T12:20:05;8.60;99.90
39079;DHT22;24829;49.208;12.080;2023-11-21T12:22:31;8.70;99.90
39079;DHT22;24829;49.208;12.080;2023-11-21T12:24:57;8.70;99.90
39079;DHT22;24829;49.208;12.080;2023-11-21T12:27:23;8.80;99.90
39079;DHT22;24829;49.208;12.080;2023-11-21T12:29:49;8.80;99.90
39079;DHT22;24829;49.208;12.080;2023-11-21T12:32:14;8.80;99.90
39079;DHT22;24829;49.208;12.080;2023-11-21T12:34:43;8.90;99.90
39079;DHT22;24829;49.208;12.080;2023-11-21T12:37:09;8.80;99.90
39079;DHT22;24829;49.208;12.080;2023-11-21T12:39:34;8.90;99.90
39079;DHT22;24829;49.208;12.080;2023-11-21T12:42:00;8.90;99.90
39079;DHT22;24829;49.208;12.080;2023-11-21T12:44:26;8.90;99.90
39079;DHT22;24829;49.208;12.080;2023-11-21T12:46:51;8.90;99.90
39079;DHT22;24829;49.208;12.080;2023-11-21T12:49:18;8.90;99.90
39079;DHT22;24829;49.208;12.080;2023-11-21T12:51:47;8.80;99.90
39079;DHT22;24829;49.208;12.080;2023-11-21T12:54:13;8.90;99.90
39079;DHT22;24829;49.208;12.080;2023-11-21T12:56:39;8.80;99.90
39079;DHT22;24829;49.208;12.080;2023-11-21T12:59:04;8.90;99.90
39079;DHT22;24829;49.208;12.080;2023-11-21T13:01:30;8.80;99.90
39079;DHT22;24829;49.208;12.080;2023-11-21T13:03:57;8.80;99.90
39079;DHT22;24829;49.208;12.080;2023-11-21T13:06:27;8.70;99.90
39079;DHT22;24829;49.208;12.080;2023-11-21T13:08:55;8.70;99.90
39079;DHT22;24829;49.208;12.080;2023-11-21T13:11:22;8.70;99.90
39079;DHT22;24829;49.208;12.080;2023-11-21T13:13:51;8.70;99.90
39079;DHT22;24829;49.208;12.080;2023-11-21T13:16:18;8.70;99.90
39079;DHT22;24829;49.208;12.080;2023-11-21T13:18:46;8.70;99.90
39079;DHT22;24829;49.208;12.080;2023-11-21T13:21:12;8.70;99.90
39079;DHT22;24829;49.208;12.080;2023-11-21T13:23:42;8.70;99.90
39079;DHT22;24829;49.208;12.080;2023-11-21T13:26:09;8.70;99.90
39079;DHT22;24829;49.208;12.080;2023-11-21T13:28:35;8.70;99.90
39079;DHT22;24829;49.208;12.080;2023-11-21T13:31:03;8.80;99.90
39079;DHT22;24829;49.208;12.080;2023-11-21T13:33:47;8.80;99.90
39079;DHT22;24829;49.208;12.080;2023-11-21T13:36:16;8.80;99.90
39079;DHT22;24829;49.208;12.080;2023-11-21T13:38:48;8.80;99.90
39079;DHT22;24829;49.208;12.080;2023-11-21T13:41:14;8.80;99.90
39079;DHT22;24829;49.208;12.080;2023-11-21T13:43:40;8.80;99.90
39079;DHT22;24829;49.208;12.080;2023-11-21T13:46:09;8.70;99.90
39079;DHT22;24829;49.208;12.080;2023-11-21T13:48:47;8.70;99.90
39079;DHT22;24829;49.208;12.080;2023-11-21T13:51:18;8.70;99.90
39079;DHT22;24829;49.208;12.080;2023-11-21T13:53:48;8.80;99.90
39079;DHT22;24829;49.208;12.080;2023-11-21T13:56:18;8.80;99.90
39079;DHT22;24829;49.208;12.080;2023-11-21T13:58:52;8.70;99.90
39079;DHT22;24829;49.208;12.080;2023-11-21T14:01:18;8.80;99.90
39079;DHT22;24829;49.208;12.080;2023-11-21T14:04:13;8.80;99.90
39079;DHT22;24829;49.208;12.080;2023-11-21T14:06:49;8.80;99.90
39079;DHT22;24829;49.208;12.080;2023-11-21T14:09:18;8.80;99.90
39079;DHT22;24829;49.208;12.080;2023-11-21T14:12:01;8.70;99.90
39079;DHT22;24829;49.208;12.080;2023-11-21T14:14:31;8.70;99.90
39079;DHT22;24829;49.208;12.080;2023-11-21T14:16:57;8.60;99.90
39079;DHT22;24829;49.208;12.080;2023-11-21T14:19:24;8.60;99.90
39079;DHT22;24829;49.208;12.080;2023-11-21T14:21:53;8.60;99.90
39079;DHT22;24829;49.208;12.080;2023-11-21T14:24:19;8.60;99.90
39079;DHT22;24829;49.208;12.080;2023-11-21T14:26:46;8.60;99.90
39079;DHT22;24829;49.208;12.080;2023-11-21T14:29:13;8.50;99.90
39079;DHT22;24829;49.208;12.080;2023-11-21T14:31:41;8.50;99.90
39079;DHT22;24829;49.208;12.080;2023-11-21T14:34:07;8.50;99.90
39079;DHT22;24829;49.208;12.080;2023-11-21T14:36:34;8.50;99.90
39079;DHT22;24829;49.208;12.080;2023-11-21T14:39:00;8.50;99.90
39079;DHT22;24829;49.208;12.080;2023-11-21T14:41:26;8.50;99.90
39079;DHT22;24829;49.208;12.080;2023-11-21T14:43:53;8.40;99.90
39079;DHT22;24829;49.208;12.080;2023-11-21T14:46:19;8.30;99.90
39079;DHT22;24829;49.208;12.080;2023-11-21T14:48:45;8.30;99.90
39079;DHT22;24829;49.208;12.080;2023-11-21T14:51:25;8.30;99.90
39079;DHT22;24829;49.208;12.080;2023-11-21T14:53:58;8.40;99.90
39079;DHT22;24829;49.208;12.080;2023-11-21T14:56:32;8.40;99.90
39079;DHT22;24829;49.208;12.080;2023-11-21T14:59:01;8.40;99.90
39079;DHT22;24829;49.208;12.080;2023-11-21T15:01:34;8.30;99.90
39079;DHT22;24829;49.208;12.080;2023-11-21T15:04:09;8.30;99.90
39079;DHT22;24829;49.208;12.080;2023-11-21T15:06:40;8.20;99.90
39079;DHT22;24829;49.208;12.080;2023-11-21T15:09:08;8.20;99.90
39079;DHT22;24829;49.208;12.080;2023-11-21T15:11:34;8.20;99.90
39079;DHT22;24829;49.208;12.080;2023-11-21T15:14:00;8.20;99.90
39079;DHT22;24829;49.208;12.080;2023-11-21T15:16:31;8.30;99.90
39079;DHT22;24829;49.208;12.080;2023-11-21T15:18:56;8.30;99.90
39079;DHT22;24829;49.208;12.080;2023-11-21T15:21:22;8.30;99.90
39079;DHT22;24829;49.208;12.080;2023-11-21T15:23:49;8.30;99.90
39079;DHT22;24829;49.208;12.080;2023-11-21T15:26:16;8.30;99.90
39079;DHT22;24829;49.208;12.080;2023-11-21T15:28:41;8.20;99.90
39079;DHT22;24829;49.208;12.080;2023-11-21T15:31:07;8.20;99.90
39079;DHT22;24829;49.208;12.080;2023-11-21T15:33:34;8.20;99.90
39079;DHT22;24829;49.208;12.080;2023-11-21T15:36:01;8.20;99.90
39079;DHT22;24829;49.208;12.080;2023-11-21T15:38:27;8.20;99.90
39079;DHT22;24829;49.208;12.080;2023-11-21T15:40:53;8.20;99.90
39079;DHT22;24829;49.208;12.080;2023-11-21T15:43:20;8.10;99.90